sensor_id;sensor_type;location;lat;lon;timestamp;temperature;humidity
52471;DHT22;38382;53.160;7.026;2023-07-28T00:01:42;17.90;99.90
52471;DHT22;38382;53.160;7.026;2023-07-28T00:04:08;17.90;99.90
52471;DHT22;38382;53.160;7.026;2023-07-28T00:06:36;17.90;99.90
52471;DHT22;38382;53.160;7.026;2023-07-28T00:09:02;17.90;99.90
52471;DHT22;38382;53.160;7.026;2023-07-28T00:11:27;17.90;99.90
52471;DHT22;38382;53.160;7.026;2023-07-28T00:13:53;17.90;99.90
52471;DHT22;38382;53.160;7.026;2023-07-28T00:16:19;17.90;99.90
52471;DHT22;38382;53.160;7.026;2023-07-28T00:18:44;17.90;99.90
52471;DHT22;38382;53.160;7.026;2023-07-28T00:21:10;17.90;99.90
52471;DHT22;38382;53.160;7.026;2023-07-28T00:23:36;17.90;99.90
52471;DHT22;38382;53.160;7.026;2023-07-28T00:26:01;17.90;99.90
52471;DHT22;38382;53.160;7.026;2023-07-28T00:28:27;17.90;99.90
52471;DHT22;38382;53.160;7.026;2023-07-28T00:30:53;17.90;99.90
52471;DHT22;38382;53.160;7.026;2023-07-28T00:33:18;17.90;99.90
52471;DHT22;38382;53.160;7.026;2023-07-28T00:35:44;17.90;99.90
52471;DHT22;38382;53.160;7.026;2023-07-28T00:38:10;17.90;99.90
52471;DHT22;38382;53.160;7.026;2023-07-28T00:40:36;17.90;99.90
52471;DHT22;38382;53.160;7.026;2023-07-28T00:43:02;17.90;99.90
52471;DHT22;38382;53.160;7.026;2023-07-28T00:45:29;17.90;99.90
52471;DHT22;38382;53.160;7.026;2023-07-28T00:47:56;17.90;99.90
52471;DHT22;38382;53.160;7.026;2023-07-28T00:50:26;17.90;99.90
52471;DHT22;38382;53.160;7.026;2023-07-28T00:52:52;17.90;99.90
52471;DHT22;38382;53.160;7.026;2023-07-28T00:55:18;17.90;99.90
52471;DHT22;38382;53.160;7.026;2023-07-28T00:57:44;17.90;99.90
52471;DHT22;38382;53.160;7.026;2023-07-28T01:00:10;17.90;99.90
52471;DHT22;38382;53.160;7.026;2023-07-28T01:02:37;18.00;99.90
52471;DHT22;38382;53.160;7.026;2023-07-28T01:05:03;17.90;99.90
52471;DHT22;38382;53.160;7.026;2023-07-28T01:10:32;17.90;99.90
52471;DHT22;38382;53.160;7.026;2023-07-28T01:12:59;17.90;99.90
52471;DHT22;38382;53.160;7.026;2023-07-28T01:15:24;17.90;99.90
52471;DHT22;38382;53.160;7.026;2023-07-28T01:17:51;17.90;99.90
52471;DHT22;38382;53.160;7.026;2023-07-28T01:20:17;17.90;99.90
52471;DHT22;38382;53.160;7.026;2023-07-28T01:28:12;17.90;99.90
52471;DHT22;38382;53.160;7.026;2023-07-28T01:30:39;17.90;99.90
52471;DHT22;38382;53.160;7.026;2023-07-28T01:33:08;17.90;99.90
52471;DHT22;38382;53.160;7.026;2023-07-28T01:35:36;17.90;99.90
52471;DHT22;38382;53.160;7.026;2023-07-28T01:38:03;17.90;99.90
52471;DHT22;38382;53.160;7.026;2023-07-28T01:40:28;17.90;99.90
52471;DHT22;38382;53.160;7.026;2023-07-28T01:42:54;17.90;99.90
52471;DHT22;38382;53.160;7.026;2023-07-28T01:45:20;17.90;99.90
52471;DHT22;38382;53.160;7.026;2023-07-28T01:47:45;17.90;99.90
52471;DHT22;38382;53.160;7.026;2023-07-28T01:50:11;17.90;99.90
52471;DHT22;38382;53.160;7.026;2023-07-28T01:52:37;17.90;99.90
52471;DHT22;38382;53.160;7.026;2023-07-28T01:55:03;17.90;99.90
52471;DHT22;38382;53.160;7.026;2023-07-28T01:57:33;17.90;99.90
52471;DHT22;38382;53.160;7.026;2023-07-28T01:59:59;17.90;99.90
52471;DHT22;38382;53.160;7.026;2023-07-28T02:02:25;17.90;99.90
52471;DHT22;38382;53.160;7.026;2023-07-28T02:04:50;17.90;99.90
52471;DHT22;38382;53.160;7.026;2023-07-28T02:07:16;17.90;99.90
52471;DHT22;38382;53.160;7.026;2023-07-28T02:09:42;17.90;99.90
52471;DHT22;38382;53.160;7.026;2023-07-28T02:12:08;17.90;99.90
52471;DHT22;38382;53.160;7.026;2023-07-28T02:14:33;17.90;99.90
52471;DHT22;38382;53.160;7.026;2023-07-28T02:16:59;17.90;99.90
52471;DHT22;38382;53.160;7.026;2023-07-28T02:19:25;17.90;99.90
52471;DHT22;38382;53.160;7.026;2023-07-28T02:21:51;17.90;99.90
52471;DHT22;38382;53.160;7.026;2023-07-28T02:24:16;17.90;99.90
52471;DHT22;38382;53.160;7.026;2023-07-28T02:26:42;17.90;99.90
52471;DHT22;38382;53.160;7.026;2023-07-28T02:29:08;17.90;99.90
52471;DHT22;38382;53.160;7.026;2023-07-28T02:31:33;17.90;99.90
52471;DHT22;38382;53.160;7.026;2023-07-28T02:34:00;17.90;99.90
52471;DHT22;38382;53.160;7.026;2023-07-28T02:36:25;17.90;99.90
52471;DHT22;38382;53.160;7.026;2023-07-28T02:38:51;17.90;99.90
52471;DHT22;38382;53.160;7.026;2023-07-28T02:41:17;17.90;99.90
52471;DHT22;38382;53.160;7.026;2023-07-28T02:43:42;17.90;99.90
52471;DHT22;38382;53.160;7.026;2023-07-28T02:46:08;17.90;99.90
52471;DHT22;38382;53.160;7.026;2023-07-28T02:48:34;17.80;99.90
52471;DHT22;38382;53.160;7.026;2023-07-28T02:50:59;17.90;99.90
52471;DHT22;38382;53.160;7.026;2023-07-28T02:53:25;17.80;99.90
52471;DHT22;38382;53.160;7.026;2023-07-28T02:55:51;17.90;99.90
52471;DHT22;38382;53.160;7.026;2023-07-28T02:58:16;17.90;99.90
52471;DHT22;38382;53.160;7.026;2023-07-28T03:00:43;17.90;99.90
52471;DHT22;38382;53.160;7.026;2023-07-28T03:03:10;17.90;99.90
52471;DHT22;38382;53.160;7.026;2023-07-28T03:05:37;17.90;99.90
52471;DHT22;38382;53.160;7.026;2023-07-28T03:08:03;17.90;99.90
52471;DHT22;38382;53.160;7.026;2023-07-28T03:10:29;17.90;99.90
52471;DHT22;38382;53.160;7.026;2023-07-28T03:12:55;17.90;99.90
52471;DHT22;38382;53.160;7.026;2023-07-28T03:15:21;17.90;99.90
52471;DHT22;38382;53.160;7.026;2023-07-28T03:17:50;17.90;99.90
52471;DHT22;38382;53.160;7.026;2023-07-28T03:20:16;17.90;99.90
52471;DHT22;38382;53.160;7.026;2023-07-28T03:22:42;17.90;99.90
52471;DHT22;38382;53.160;7.026;2023-07-28T03:25:08;17.90;99.90
52471;DHT22;38382;53.160;7.026;2023-07-28T03:27:34;17.90;99.90
52471;DHT22;38382;53.160;7.026;2023-07-28T03:30:00;17.90;99.90
52471;DHT22;38382;53.160;7.026;2023-07-28T03:32:26;17.90;99.90
52471;DHT22;38382;53.160;7.026;2023-07-28T03:34:52;17.90;99.90
52471;DHT22;38382;53.160;7.026;2023-07-28T03:37:17;17.90;99.90
52471;DHT22;38382;53.160;7.026;2023-07-28T03:39:43;17.90;99.90
52471;DHT22;38382;53.160;7.026;2023-07-28T03:42:09;17.80;99.90
52471;DHT22;38382;53.160;7.026;2023-07-28T03:44:35;17.90;99.90
52471;DHT22;38382;53.160;7.026;2023-07-28T03:47:03;17.90;99.90
52471;DHT22;38382;53.160;7.026;2023-07-28T03:49:29;17.90;99.90
52471;DHT22;38382;53.160;7.026;2023-07-28T03:51:55;17.90;99.90
52471;DHT22;38382;53.160;7.026;2023-07-28T03:54:21;17.90;99.90
52471;DHT22;38382;53.160;7.026;2023-07-28T03:56:47;17.90;99.90
52471;DHT22;38382;53.160;7.026;2023-07-28T03:59:12;17.90;99.90
52471;DHT22;38382;53.160;7.026;2023-07-28T04:01:38;17.90;99.90
52471;DHT22;38382;53.160;7.026;2023-07-28T04:04:04;17.90;99.90
52471;DHT22;38382;53.160;7.026;2023-07-28T04:06:47;17.90;99.90
52471;DHT22;38382;53.160;7.026;2023-07-28T04:09:14;17.90;99.90
52471;DHT22;38382;53.160;7.026;2023-07-28T04:11:40;17.90;99.90
52471;DHT22;38382;53.160;7.026;2023-07-28T04:14:06;17.90;99.90
52471;DHT22;38382;53.160;7.026;2023-07-28T04:16:32;17.90;99.90
52471;DHT22;38382;53.160;7.026;2023-07-28T04:18:59;17.90;99.90
52471;DHT22;38382;53.160;7.026;2023-07-28T04:21:25;17.90;99.90
52471;DHT22;38382;53.160;7.026;2023-07-28T04:23:51;17.90;99.90
52471;DHT22;38382;53.160;7.026;2023-07-28T04:26:17;17.90;99.90
52471;DHT22;38382;53.160;7.026;2023-07-28T04:28:43;17.90;99.90
52471;DHT22;38382;53.160;7.026;2023-07-28T04:31:09;17.90;99.90
52471;DHT22;38382;53.160;7.026;2023-07-28T04:33:34;17.90;99.90
52471;DHT22;38382;53.160;7.026;2023-07-28T04:36:03;17.90;99.90
52471;DHT22;38382;53.160;7.026;2023-07-28T04:38:29;18.00;99.90
52471;DHT22;38382;53.160;7.026;2023-07-28T04:40:55;17.90;99.90
52471;DHT22;38382;53.160;7.026;2023-07-28T04:43:21;18.00;99.90
52471;DHT22;38382;53.160;7.026;2023-07-28T04:45:46;17.90;99.90
52471;DHT22;38382;53.160;7.026;2023-07-28T04:48:12;18.00;99.90
52471;DHT22;38382;53.160;7.026;2023-07-28T04:50:38;18.00;99.90
52471;DHT22;38382;53.160;7.026;2023-07-28T04:53:04;18.00;99.90
52471;DHT22;38382;53.160;7.026;2023-07-28T04:55:30;18.00;99.90
52471;DHT22;38382;53.160;7.026;2023-07-28T04:57:56;18.00;99.90
52471;DHT22;38382;53.160;7.026;2023-07-28T05:00:22;18.00;99.90
52471;DHT22;38382;53.160;7.026;2023-07-28T05:02:49;18.00;99.90
52471;DHT22;38382;53.160;7.026;2023-07-28T05:05:14;18.00;99.90
52471;DHT22;38382;53.160;7.026;2023-07-28T05:07:41;18.00;99.90
52471;DHT22;38382;53.160;7.026;2023-07-28T05:10:07;18.00;99.90
52471;DHT22;38382;53.160;7.026;2023-07-28T05:12:33;18.00;99.90
52471;DHT22;38382;53.160;7.026;2023-07-28T05:14:59;18.00;99.90
52471;DHT22;38382;53.160;7.026;2023-07-28T05:17:24;18.00;99.90
52471;DHT22;38382;53.160;7.026;2023-07-28T05:19:50;18.00;99.90
52471;DHT22;38382;53.160;7.026;2023-07-28T05:22:16;18.10;99.90
52471;DHT22;38382;53.160;7.026;2023-07-28T05:24:43;18.10;99.90
52471;DHT22;38382;53.160;7.026;2023-07-28T05:27:10;18.10;99.90
52471;DHT22;38382;53.160;7.026;2023-07-28T05:29:36;18.10;99.90
52471;DHT22;38382;53.160;7.026;2023-07-28T05:32:02;18.20;99.90
52471;DHT22;38382;53.160;7.026;2023-07-28T05:34:29;18.20;99.90
52471;DHT22;38382;53.160;7.026;2023-07-28T05:36:55;18.20;99.90
52471;DHT22;38382;53.160;7.026;2023-07-28T05:39:24;18.20;99.90
52471;DHT22;38382;53.160;7.026;2023-07-28T05:41:50;18.20;99.90
52471;DHT22;38382;53.160;7.026;2023-07-28T05:44:16;18.20;99.90
52471;DHT22;38382;53.160;7.026;2023-07-28T05:46:41;18.20;99.90
52471;DHT22;38382;53.160;7.026;2023-07-28T05:49:07;18.30;99.90
52471;DHT22;38382;53.160;7.026;2023-07-28T05:51:33;18.30;99.90
52471;DHT22;38382;53.160;7.026;2023-07-28T05:53:59;18.20;99.90
52471;DHT22;38382;53.160;7.026;2023-07-28T05:56:25;18.30;99.90
52471;DHT22;38382;53.160;7.026;2023-07-28T05:58:51;18.30;99.90
52471;DHT22;38382;53.160;7.026;2023-07-28T06:01:17;18.30;99.90
52471;DHT22;38382;53.160;7.026;2023-07-28T06:03:43;18.30;99.90
52471;DHT22;38382;53.160;7.026;2023-07-28T06:06:09;18.30;99.90
52471;DHT22;38382;53.160;7.026;2023-07-28T06:08:35;18.40;99.90
52471;DHT22;38382;53.160;7.026;2023-07-28T06:11:06;18.40;99.90
52471;DHT22;38382;53.160;7.026;2023-07-28T06:13:32;18.40;99.90
52471;DHT22;38382;53.160;7.026;2023-07-28T06:15:58;18.40;99.90
52471;DHT22;38382;53.160;7.026;2023-07-28T06:18:25;18.50;99.90
52471;DHT22;38382;53.160;7.026;2023-07-28T06:20:50;18.50;99.90
52471;DHT22;38382;53.160;7.026;2023-07-28T06:23:16;18.50;99.90
52471;DHT22;38382;53.160;7.026;2023-07-28T06:25:42;18.50;99.90
52471;DHT22;38382;53.160;7.026;2023-07-28T06:28:10;18.60;99.90
52471;DHT22;38382;53.160;7.026;2023-07-28T06:30:37;18.60;99.90
52471;DHT22;38382;53.160;7.026;2023-07-28T06:33:05;18.60;99.90
52471;DHT22;38382;53.160;7.026;2023-07-28T06:35:31;18.70;99.90
52471;DHT22;38382;53.160;7.026;2023-07-28T06:37:57;18.80;99.90
52471;DHT22;38382;53.160;7.026;2023-07-28T06:40:22;18.90;99.90
52471;DHT22;38382;53.160;7.026;2023-07-28T06:42:48;19.10;99.90
52471;DHT22;38382;53.160;7.026;2023-07-28T06:45:14;19.10;99.90
52471;DHT22;38382;53.160;7.026;2023-07-28T06:47:40;19.20;99.90
52471;DHT22;38382;53.160;7.026;2023-07-28T06:50:06;19.30;99.90
52471;DHT22;38382;53.160;7.026;2023-07-28T06:52:31;19.40;99.90
52471;DHT22;38382;53.160;7.026;2023-07-28T06:54:57;19.50;99.90
52471;DHT22;38382;53.160;7.026;2023-07-28T06:57:23;19.50;99.90
52471;DHT22;38382;53.160;7.026;2023-07-28T06:59:50;19.60;99.90
52471;DHT22;38382;53.160;7.026;2023-07-28T07:02:16;19.60;99.90
52471;DHT22;38382;53.160;7.026;2023-07-28T07:04:42;19.60;99.90
52471;DHT22;38382;53.160;7.026;2023-07-28T07:07:08;19.60;99.90
52471;DHT22;38382;53.160;7.026;2023-07-28T07:09:34;19.50;99.90
52471;DHT22;38382;53.160;7.026;2023-07-28T07:12:00;19.50;99.90
52471;DHT22;38382;53.160;7.026;2023-07-28T07:14:26;19.60;99.90
52471;DHT22;38382;53.160;7.026;2023-07-28T07:16:51;19.60;99.90
52471;DHT22;38382;53.160;7.026;2023-07-28T07:19:17;19.70;99.90
52471;DHT22;38382;53.160;7.026;2023-07-28T07:21:43;19.70;99.90
52471;DHT22;38382;53.160;7.026;2023-07-28T07:24:10;19.80;99.90
52471;DHT22;38382;53.160;7.026;2023-07-28T07:26:39;19.80;99.90
52471;DHT22;38382;53.160;7.026;2023-07-28T07:29:06;19.90;99.90
52471;DHT22;38382;53.160;7.026;2023-07-28T07:31:32;19.90;99.90
52471;DHT22;38382;53.160;7.026;2023-07-28T07:33:58;19.90;99.90
52471;DHT22;38382;53.160;7.026;2023-07-28T07:36:24;20.10;99.90
52471;DHT22;38382;53.160;7.026;2023-07-28T07:38:49;20.10;99.90
52471;DHT22;38382;53.160;7.026;2023-07-28T07:41:16;20.10;99.90
52471;DHT22;38382;53.160;7.026;2023-07-28T07:43:45;20.20;99.90
52471;DHT22;38382;53.160;7.026;2023-07-28T07:46:12;20.20;99.90
52471;DHT22;38382;53.160;7.026;2023-07-28T07:48:38;20.10;99.90
52471;DHT22;38382;53.160;7.026;2023-07-28T07:51:04;20.20;99.90
52471;DHT22;38382;53.160;7.026;2023-07-28T07:53:30;20.20;99.90
52471;DHT22;38382;53.160;7.026;2023-07-28T07:55:55;20.20;99.90
52471;DHT22;38382;53.160;7.026;2023-07-28T07:58:21;20.30;99.90
52471;DHT22;38382;53.160;7.026;2023-07-28T08:00:47;20.30;99.90
52471;DHT22;38382;53.160;7.026;2023-07-28T08:03:13;20.50;99.90
52471;DHT22;38382;53.160;7.026;2023-07-28T08:05:38;20.60;99.90
52471;DHT22;38382;53.160;7.026;2023-07-28T08:08:04;20.70;99.90
52471;DHT22;38382;53.160;7.026;2023-07-28T08:10:32;20.80;99.90
52471;DHT22;38382;53.160;7.026;2023-07-28T08:12:58;20.90;99.90
52471;DHT22;38382;53.160;7.026;2023-07-28T08:15:25;20.90;99.90
52471;DHT22;38382;53.160;7.026;2023-07-28T08:17:51;20.90;99.90
52471;DHT22;38382;53.160;7.026;2023-07-28T08:20:17;20.70;99.90
52471;DHT22;38382;53.160;7.026;2023-07-28T08:22:43;20.70;99.90
52471;DHT22;38382;53.160;7.026;2023-07-28T08:25:09;20.70;99.90
52471;DHT22;38382;53.160;7.026;2023-07-28T08:27:35;20.80;99.90
52471;DHT22;38382;53.160;7.026;2023-07-28T08:30:02;20.90;99.90
52471;DHT22;38382;53.160;7.026;2023-07-28T08:32:27;21.00;99.90
52471;DHT22;38382;53.160;7.026;2023-07-28T08:34:54;21.00;99.90
52471;DHT22;38382;53.160;7.026;2023-07-28T08:37:19;21.00;99.90
52471;DHT22;38382;53.160;7.026;2023-07-28T08:39:45;21.00;99.90
52471;DHT22;38382;53.160;7.026;2023-07-28T08:42:11;20.90;99.90
52471;DHT22;38382;53.160;7.026;2023-07-28T08:44:37;20.90;99.90
52471;DHT22;38382;53.160;7.026;2023-07-28T08:47:04;20.90;99.90
52471;DHT22;38382;53.160;7.026;2023-07-28T08:49:30;21.00;99.90
52471;DHT22;38382;53.160;7.026;2023-07-28T08:52:01;20.90;99.90
52471;DHT22;38382;53.160;7.026;2023-07-28T08:54:28;20.30;99.90
52471;DHT22;38382;53.160;7.026;2023-07-28T10:39:37;24.20;99.90
52471;DHT22;38382;53.160;7.026;2023-07-28T10:42:08;23.80;99.90
52471;DHT22;38382;53.160;7.026;2023-07-28T10:44:34;23.50;99.90
52471;DHT22;38382;53.160;7.026;2023-07-28T10:47:00;23.30;99.90
52471;DHT22;38382;53.160;7.026;2023-07-28T10:49:31;23.20;99.90
52471;DHT22;38382;53.160;7.026;2023-07-28T10:51:57;23.20;99.90
52471;DHT22;38382;53.160;7.026;2023-07-28T10:54:23;23.10;99.90
52471;DHT22;38382;53.160;7.026;2023-07-28T10:56:49;23.20;99.90
52471;DHT22;38382;53.160;7.026;2023-07-28T10:59:15;23.40;99.90
52471;DHT22;38382;53.160;7.026;2023-07-28T11:01:41;23.90;99.90
52471;DHT22;38382;53.160;7.026;2023-07-28T11:06:44;25.30;99.90
52471;DHT22;38382;53.160;7.026;2023-07-28T11:09:10;25.40;99.90
52471;DHT22;38382;53.160;7.026;2023-07-28T11:11:40;25.60;99.90
52471;DHT22;38382;53.160;7.026;2023-07-28T11:14:07;25.40;99.90
52471;DHT22;38382;53.160;7.026;2023-07-28T11:16:34;25.30;99.90
52471;DHT22;38382;53.160;7.026;2023-07-28T11:19:01;25.50;99.90
52471;DHT22;38382;53.160;7.026;2023-07-28T11:21:28;25.80;99.90
52471;DHT22;38382;53.160;7.026;2023-07-28T11:23:54;26.00;99.90
52471;DHT22;38382;53.160;7.026;2023-07-28T11:26:23;26.20;99.90
52471;DHT22;38382;53.160;7.026;2023-07-28T11:28:49;26.20;99.90
52471;DHT22;38382;53.160;7.026;2023-07-28T11:31:15;26.10;99.90
52471;DHT22;38382;53.160;7.026;2023-07-28T11:33:40;25.80;99.90
52471;DHT22;38382;53.160;7.026;2023-07-28T11:38:35;25.70;99.90
52471;DHT22;38382;53.160;7.026;2023-07-28T11:41:02;25.80;99.90
52471;DHT22;38382;53.160;7.026;2023-07-28T11:43:29;26.30;99.90
52471;DHT22;38382;53.160;7.026;2023-07-28T11:45:54;26.80;99.90
52471;DHT22;38382;53.160;7.026;2023-07-28T11:48:20;27.40;99.90
52471;DHT22;38382;53.160;7.026;2023-07-28T11:50:46;27.90;99.90
52471;DHT22;38382;53.160;7.026;2023-07-28T11:53:12;27.90;99.90
52471;DHT22;38382;53.160;7.026;2023-07-28T11:55:39;28.10;99.90
52471;DHT22;38382;53.160;7.026;2023-07-28T11:58:07;28.00;99.90
52471;DHT22;38382;53.160;7.026;2023-07-28T12:00:38;28.00;99.90
52471;DHT22;38382;53.160;7.026;2023-07-28T12:03:10;27.80;99.90
52471;DHT22;38382;53.160;7.026;2023-07-28T12:05:37;27.50;99.90
52471;DHT22;38382;53.160;7.026;2023-07-28T12:08:03;27.30;99.90
52471;DHT22;38382;53.160;7.026;2023-07-28T12:10:30;27.40;99.90
52471;DHT22;38382;53.160;7.026;2023-07-28T12:12:57;27.70;99.90
52471;DHT22;38382;53.160;7.026;2023-07-28T12:15:29;27.50;99.90
52471;DHT22;38382;53.160;7.026;2023-07-28T12:18:09;27.40;99.90
52471;DHT22;38382;53.160;7.026;2023-07-28T12:20:43;27.20;99.90
52471;DHT22;38382;53.160;7.026;2023-07-28T12:23:13;27.30;99.90
52471;DHT22;38382;53.160;7.026;2023-07-28T12:25:40;27.40;99.90
52471;DHT22;38382;53.160;7.026;2023-07-28T12:28:06;27.50;99.90
52471;DHT22;38382;53.160;7.026;2023-07-28T12:30:35;27.30;99.90
52471;DHT22;38382;53.160;7.026;2023-07-28T12:33:01;27.10;99.90
52471;DHT22;38382;53.160;7.026;2023-07-28T12:35:28;27.10;99.90
52471;DHT22;38382;53.160;7.026;2023-07-28T12:37:58;27.20;99.90
52471;DHT22;38382;53.160;7.026;2023-07-28T12:40:27;27.30;99.90
52471;DHT22;38382;53.160;7.026;2023-07-28T12:42:54;27.50;99.90
52471;DHT22;38382;53.160;7.026;2023-07-28T13:10:31;26.60;99.90
52471;DHT22;38382;53.160;7.026;2023-07-28T13:12:57;26.20;99.90
52471;DHT22;38382;53.160;7.026;2023-07-28T13:15:23;26.10;99.90
52471;DHT22;38382;53.160;7.026;2023-07-28T13:17:48;26.10;99.90
52471;DHT22;38382;53.160;7.026;2023-07-28T13:20:14;26.30;99.90
52471;DHT22;38382;53.160;7.026;2023-07-28T13:22:40;26.30;99.90
52471;DHT22;38382;53.160;7.026;2023-07-28T13:25:06;26.30;99.90
52471;DHT22;38382;53.160;7.026;2023-07-28T13:27:32;26.60;99.90
52471;DHT22;38382;53.160;7.026;2023-07-28T13:29:59;27.20;99.90
52471;DHT22;38382;53.160;7.026;2023-07-28T13:32:25;27.60;99.90
52471;DHT22;38382;53.160;7.026;2023-07-28T13:34:52;28.30;99.90
52471;DHT22;38382;53.160;7.026;2023-07-28T13:37:18;28.20;99.90
52471;DHT22;38382;53.160;7.026;2023-07-28T13:39:45;28.10;99.90
52471;DHT22;38382;53.160;7.026;2023-07-28T13:42:11;28.00;99.90
52471;DHT22;38382;53.160;7.026;2023-07-28T13:44:38;27.70;99.90
52471;DHT22;38382;53.160;7.026;2023-07-28T13:47:04;27.40;99.90
52471;DHT22;38382;53.160;7.026;2023-07-28T13:49:31;26.90;99.90
52471;DHT22;38382;53.160;7.026;2023-07-28T13:51:57;26.40;99.90
52471;DHT22;38382;53.160;7.026;2023-07-28T13:54:22;26.20;99.90
52471;DHT22;38382;53.160;7.026;2023-07-28T13:56:48;26.00;99.90
52471;DHT22;38382;53.160;7.026;2023-07-28T13:59:14;25.90;99.90
52471;DHT22;38382;53.160;7.026;2023-07-28T14:01:40;25.80;99.90
52471;DHT22;38382;53.160;7.026;2023-07-28T14:04:06;25.70;99.90
52471;DHT22;38382;53.160;7.026;2023-07-28T14:06:32;25.80;99.90
52471;DHT22;38382;53.160;7.026;2023-07-28T14:08:58;25.90;99.90
52471;DHT22;38382;53.160;7.026;2023-07-28T14:11:28;26.40;99.90
52471;DHT22;38382;53.160;7.026;2023-07-28T14:13:54;26.60;99.90
52471;DHT22;38382;53.160;7.026;2023-07-28T15:59:56;26.10;99.90
52471;DHT22;38382;53.160;7.026;2023-07-28T16:02:22;26.00;99.90
52471;DHT22;38382;53.160;7.026;2023-07-28T16:04:48;26.10;99.90
52471;DHT22;38382;53.160;7.026;2023-07-28T16:07:16;26.70;99.90
52471;DHT22;38382;53.160;7.026;2023-07-28T16:09:42;27.40;99.90
52471;DHT22;38382;53.160;7.026;2023-07-28T16:12:09;28.40;99.90
52471;DHT22;38382;53.160;7.026;2023-07-28T16:14:35;29.90;99.90
52471;DHT22;38382;53.160;7.026;2023-07-28T16:17:01;31.60;99.90
52471;DHT22;38382;53.160;7.026;2023-07-28T16:19:27;32.10;98.50
52471;DHT22;38382;53.160;7.026;2023-07-28T16:21:52;33.00;96.70
52471;DHT22;38382;53.160;7.026;2023-07-28T16:24:20;33.10;93.30
52471;DHT22;38382;53.160;7.026;2023-07-28T16:26:46;33.10;94.60
52471;DHT22;38382;53.160;7.026;2023-07-28T16:29:11;33.50;95.70
52471;DHT22;38382;53.160;7.026;2023-07-28T16:31:37;33.80;95.10
52471;DHT22;38382;53.160;7.026;2023-07-28T16:34:04;33.30;94.40
52471;DHT22;38382;53.160;7.026;2023-07-28T16:36:30;32.40;94.90
52471;DHT22;38382;53.160;7.026;2023-07-28T16:38:55;31.20;96.70
52471;DHT22;38382;53.160;7.026;2023-07-28T16:41:21;30.20;98.70
52471;DHT22;38382;53.160;7.026;2023-07-28T16:43:47;29.40;99.90
52471;DHT22;38382;53.160;7.026;2023-07-28T16:46:13;28.80;99.90
52471;DHT22;38382;53.160;7.026;2023-07-28T16:48:38;28.70;99.90
52471;DHT22;38382;53.160;7.026;2023-07-28T16:51:04;28.90;99.90
52471;DHT22;38382;53.160;7.026;2023-07-28T16:53:30;28.80;99.90
52471;DHT22;38382;53.160;7.026;2023-07-28T16:55:56;28.30;99.90
52471;DHT22;38382;53.160;7.026;2023-07-28T16:58:21;27.80;99.90
52471;DHT22;38382;53.160;7.026;2023-07-28T17:00:47;27.40;99.90
52471;DHT22;38382;53.160;7.026;2023-07-28T17:03:13;27.00;99.90
52471;DHT22;38382;53.160;7.026;2023-07-28T17:05:39;26.60;99.90
52471;DHT22;38382;53.160;7.026;2023-07-28T17:08:04;26.30;99.90
52471;DHT22;38382;53.160;7.026;2023-07-28T17:10:30;26.10;99.90
52471;DHT22;38382;53.160;7.026;2023-07-28T17:12:56;25.90;99.90
52471;DHT22;38382;53.160;7.026;2023-07-28T17:15:21;25.70;99.90
52471;DHT22;38382;53.160;7.026;2023-07-28T17:17:47;25.60;99.90
52471;DHT22;38382;53.160;7.026;2023-07-28T17:20:13;25.50;99.90
52471;DHT22;38382;53.160;7.026;2023-07-28T17:22:39;25.40;99.90
52471;DHT22;38382;53.160;7.026;2023-07-28T17:25:05;25.30;99.90
52471;DHT22;38382;53.160;7.026;2023-07-28T17:27:31;25.10;99.90
52471;DHT22;38382;53.160;7.026;2023-07-28T17:29:57;24.90;99.90
52471;DHT22;38382;53.160;7.026;2023-07-28T17:32:24;24.70;99.90
52471;DHT22;38382;53.160;7.026;2023-07-28T17:34:53;24.60;99.90
52471;DHT22;38382;53.160;7.026;2023-07-28T17:37:19;24.50;99.90
52471;DHT22;38382;53.160;7.026;2023-07-28T17:39:45;24.40;99.90
52471;DHT22;38382;53.160;7.026;2023-07-28T17:42:11;24.40;99.90
52471;DHT22;38382;53.160;7.026;2023-07-28T17:44:37;24.40;99.90
52471;DHT22;38382;53.160;7.026;2023-07-28T17:47:05;24.30;99.90
52471;DHT22;38382;53.160;7.026;2023-07-28T17:49:30;24.30;99.90
52471;DHT22;38382;53.160;7.026;2023-07-28T17:51:56;24.20;99.90
52471;DHT22;38382;53.160;7.026;2023-07-28T17:54:22;24.20;99.90
52471;DHT22;38382;53.160;7.026;2023-07-28T17:56:48;24.10;99.90
52471;DHT22;38382;53.160;7.026;2023-07-28T17:59:14;23.90;99.90
52471;DHT22;38382;53.160;7.026;2023-07-28T18:01:39;23.80;99.90
52471;DHT22;38382;53.160;7.026;2023-07-28T18:04:05;23.60;99.90
52471;DHT22;38382;53.160;7.026;2023-07-28T18:06:31;23.50;99.90
52471;DHT22;38382;53.160;7.026;2023-07-28T18:08:57;23.50;99.90
52471;DHT22;38382;53.160;7.026;2023-07-28T18:11:23;23.50;99.90
52471;DHT22;38382;53.160;7.026;2023-07-28T18:13:48;23.40;99.90
52471;DHT22;38382;53.160;7.026;2023-07-28T18:16:14;23.40;99.90
52471;DHT22;38382;53.160;7.026;2023-07-28T18:18:40;23.30;99.90
52471;DHT22;38382;53.160;7.026;2023-07-28T18:21:06;23.30;99.90
52471;DHT22;38382;53.160;7.026;2023-07-28T18:23:32;23.20;99.90
52471;DHT22;38382;53.160;7.026;2023-07-28T18:25:58;23.00;99.90
52471;DHT22;38382;53.160;7.026;2023-07-28T18:28:24;22.90;99.90
52471;DHT22;38382;53.160;7.026;2023-07-28T18:30:49;22.80;99.90
52471;DHT22;38382;53.160;7.026;2023-07-28T18:33:15;22.70;99.90
52471;DHT22;38382;53.160;7.026;2023-07-28T18:35:41;22.60;99.90
52471;DHT22;38382;53.160;7.026;2023-07-28T18:38:07;22.50;99.90
52471;DHT22;38382;53.160;7.026;2023-07-28T18:40:32;22.30;99.90
52471;DHT22;38382;53.160;7.026;2023-07-28T18:42:58;22.20;99.90
52471;DHT22;38382;53.160;7.026;2023-07-28T18:45:24;22.10;99.90
52471;DHT22;38382;53.160;7.026;2023-07-28T18:47:49;22.00;99.90
52471;DHT22;38382;53.160;7.026;2023-07-28T18:50:15;21.90;99.90
52471;DHT22;38382;53.160;7.026;2023-07-28T18:52:41;21.80;99.90
52471;DHT22;38382;53.160;7.026;2023-07-28T18:55:07;21.70;99.90
52471;DHT22;38382;53.160;7.026;2023-07-28T18:57:33;21.60;99.90
52471;DHT22;38382;53.160;7.026;2023-07-28T18:59:59;21.50;99.90
52471;DHT22;38382;53.160;7.026;2023-07-28T19:02:24;21.40;99.90
52471;DHT22;38382;53.160;7.026;2023-07-28T19:04:50;21.30;99.90
52471;DHT22;38382;53.160;7.026;2023-07-28T19:07:16;21.20;99.90
52471;DHT22;38382;53.160;7.026;2023-07-28T19:09:42;21.10;99.90
52471;DHT22;38382;53.160;7.026;2023-07-28T19:12:08;21.00;99.90
52471;DHT22;38382;53.160;7.026;2023-07-28T19:14:36;20.90;99.90
52471;DHT22;38382;53.160;7.026;2023-07-28T19:17:02;20.90;99.90
52471;DHT22;38382;53.160;7.026;2023-07-28T19:19:27;20.80;99.90
52471;DHT22;38382;53.160;7.026;2023-07-28T19:21:53;20.70;99.90
52471;DHT22;38382;53.160;7.026;2023-07-28T19:24:20;20.60;99.90
52471;DHT22;38382;53.160;7.026;2023-07-28T19:26:47;20.50;99.90
52471;DHT22;38382;53.160;7.026;2023-07-28T19:29:14;20.30;99.90